Time;durP1;ratioP1;P1;durP2;ratioP2;P2;SDS_P1;SDS_P2;PMS_P1;PMS_P2;Temp;Humidity;BMP_temperature;BMP_pressure;BME280_temperature;BME280_humidity;BME280_pressure;Samples;Min_cycle;Max_cycle;Signal;HPM_P1;HPM_P2
2021/08/07 00:00:02;;;;;;;20.98;6.82;;;;;;;15.85;100.00;100341.25;5076663;28;20039;-65
2021/08/07 00:02:28;;;;;;;20.00;6.70;;;;;;;15.83;100.00;100334.22;5075420;28;20386;-65
2021/08/07 00:04:53;;;;;;;22.25;6.93;;;;;;;15.81;100.00;100328.03;5080129;28;20103;-64
2021/08/07 00:07:18;;;;;;;20.63;6.70;;;;;;;15.85;100.00;100327.06;5077208;28;21068;-66
2021/08/07 00:09:44;;;;;;;19.92;6.50;;;;;;;15.82;100.00;100319.16;5074451;28;20059;-67
2021/08/07 00:12:09;;;;;;;20.58;7.20;;;;;;;15.82;100.00;100319.16;5078150;28;20039;-65
2021/08/07 00:14:34;;;;;;;21.67;7.22;;;;;;;15.82;100.00;100319.16;5073457;28;20055;-66
2021/08/07 00:17:00;;;;;;;20.90;7.20;;;;;;;15.85;100.00;100319.06;5080519;28;20036;-66
2021/08/07 00:19:25;;;;;;;19.75;6.90;;;;;;;15.85;100.00;100319.94;5075635;28;20028;-67
2021/08/07 00:21:50;;;;;;;21.75;7.53;;;;;;;15.81;100.00;100328.94;5076671;28;20063;-67
2021/08/07 00:24:16;;;;;;;22.10;7.72;;;;;;;15.79;100.00;100325.41;5077830;28;20028;-66
2021/08/07 00:26:42;;;;;;;21.42;7.97;;;;;;;15.77;100.00;100321.00;5072961;28;20074;-66
2021/08/07 00:29:07;;;;;;;22.45;7.80;;;;;;;15.75;100.00;100326.38;5077626;28;20069;-65
2021/08/07 00:31:32;;;;;;;24.92;8.43;;;;;;;15.72;100.00;100322.94;5074100;28;20024;-63
2021/08/07 00:33:58;;;;;;;23.13;8.27;;;;;;;15.64;100.00;100323.09;5072930;28;20086;-64
2021/08/07 00:36:23;;;;;;;23.85;8.30;;;;;;;15.61;100.00;100316.09;5076312;28;20020;-63
2021/08/07 00:38:48;;;;;;;25.02;8.70;;;;;;;15.59;100.00;100320.56;5072711;28;20040;-63
2021/08/07 00:41:14;;;;;;;25.23;8.95;;;;;;;15.56;100.00;100317.09;5078341;28;20118;-63
2021/08/07 00:43:39;;;;;;;24.92;8.07;;;;;;;15.47;100.00;100319.06;5073586;28;20487;-64
2021/08/07 00:46:04;;;;;;;28.38;9.25;;;;;;;15.37;100.00;100311.34;5074483;28;20040;-64
2021/08/07 00:48:30;;;;;;;27.83;8.75;;;;;;;15.29;100.00;100306.19;5078051;28;20078;-63
2021/08/07 00:50:55;;;;;;;26.90;9.18;;;;;;;15.15;100.00;100299.41;5075216;28;20016;-64
2021/08/07 00:53:21;;;;;;;27.42;8.80;;;;;;;15.09;100.00;100301.34;5076778;28;20032;-63
2021/08/07 00:55:47;;;;;;;29.20;9.35;;;;;;;14.98;100.00;100293.59;5074630;28;20028;-64
2021/08/07 00:58:12;;;;;;;30.33;9.13;;;;;;;14.91;100.00;100298.19;5073754;28;20100;-64
2021/08/07 01:00:38;;;;;;;28.10;8.60;;;;;;;14.87;100.00;100301.81;5077677;28;20107;-64
2021/08/07 01:03:16;;;;;;;28.55;8.93;;;;;;;14.83;100.00;100300.13;5076183;28;20021;-63
2021/08/07 01:05:51;;;;;;;27.98;9.18;;;;;;;14.79;100.00;100298.44;5075529;28;20028;-63
2021/08/07 01:08:19;;;;;;;26.15;8.63;;;;;;;14.81;100.00;100291.31;5075881;28;20082;-63
2021/08/07 01:11:06;;;;;;;27.45;9.52;;;;;;;14.77;100.00;100295.81;5076864;28;20036;-63
2021/08/07 01:13:35;;;;;;;27.60;8.57;;;;;;;14.71;100.00;100295.97;5074716;28;20421;-63
2021/08/07 01:16:12;;;;;;;24.85;8.90;;;;;;;14.68;100.00;100300.44;5075029;28;20109;-63
2021/08/07 01:18:39;;;;;;;28.25;9.00;;;;;;;14.68;100.00;100297.78;5074246;28;20044;-63
2021/08/07 01:21:13;;;;;;;25.13;8.65;;;;;;;14.64;100.00;100310.31;5077188;28;20020;-64
2021/08/07 01:24:04;;;;;;;23.75;9.02;;;;;;;14.61;100.00;100307.66;5077637;28;20043;-63
2021/08/07 01:26:48;;;;;;;24.98;9.18;;;;;;;14.54;100.00;100311.38;5075770;28;20081;-63
2021/08/07 01:29:15;;;;;;;24.17;8.43;;;;;;;14.52;100.00;100314.06;5075728;28;20028;-64
2021/08/07 01:31:44;;;;;;;23.42;8.30;;;;;;;14.49;100.00;100314.13;5077982;28;20032;-63
2021/08/07 01:34:10;;;;;;;23.63;8.10;;;;;;;14.49;100.00;100300.81;5077078;28;20086;-64
2021/08/07 01:36:36;;;;;;;23.85;8.43;;;;;;;14.48;100.00;100307.03;5075509;28;20027;-63
2021/08/07 01:39:02;;;;;;;23.45;9.13;;;;;;;14.44;100.00;100303.56;5076853;28;20036;-63
2021/08/07 01:41:27;;;;;;;22.83;8.32;;;;;;;14.43;100.00;100304.47;5077829;28;20154;-63
2021/08/07 01:43:53;;;;;;;23.08;8.50;;;;;;;14.39;100.00;100307.25;5081352;28;20475;-63
2021/08/07 01:46:19;;;;;;;22.65;8.32;;;;;;;14.38;100.00;100302.81;5082238;28;20036;-63
2021/08/07 01:48:53;;;;;;;23.13;8.43;;;;;;;14.37;100.00;100301.06;5080825;28;20024;-63
2021/08/07 01:51:24;;;;;;;26.27;7.97;;;;;;;14.32;100.00;100309.13;5081157;28;20028;-63
2021/08/07 01:53:53;;;;;;;23.52;8.00;;;;;;;14.33;100.00;100300.25;5079214;28;20035;-64
2021/08/07 01:56:27;;;;;;;21.85;7.82;;;;;;;14.36;100.00;100300.19;5078815;28;20111;-63
2021/08/07 01:58:58;;;;;;;22.83;7.97;;;;;;;14.37;100.00;100299.28;5077354;28;20021;-64
2021/08/07 02:01:24;;;;;;;21.40;7.70;;;;;;;14.37;100.00;100296.63;5081262;28;20401;-64
2021/08/07 02:03:52;;;;;;;21.40;7.80;;;;;;;14.40;100.00;100296.56;5079237;28;20056;-63
2021/08/07 02:06:20;;;;;;;21.20;7.63;;;;;;;14.38;100.00;100292.19;5079736;28;20391;-63
2021/08/07 02:08:45;;;;;;;22.05;7.20;;;;;;;14.34;100.00;100298.47;5078798;28;20027;-63
2021/08/07 02:11:11;;;;;;;21.80;7.40;;;;;;;14.34;100.00;100302.00;5078863;28;20020;-64
2021/08/07 02:13:36;;;;;;;20.90;7.35;;;;;;;14.35;100.00;100300.22;5080631;28;20023;-65
2021/08/07 02:16:03;;;;;;;20.25;6.97;;;;;;;14.33;100.00;100286.97;5078077;28;20486;-63
2021/08/07 02:18:28;;;;;;;21.30;7.00;;;;;;;14.36;100.00;100288.66;5076861;28;20025;-63
2021/08/07 02:20:55;;;;;;;21.08;7.43;;;;;;;14.37;100.00;100291.31;5079889;28;20047;-63
2021/08/07 02:23:21;;;;;;;21.60;7.10;;;;;;;14.40;100.00;100295.66;5077597;28;21797;-63
2021/08/07 02:25:52;;;;;;;21.73;7.45;;;;;;;14.43;100.00;100284.97;5079333;28;20020;-63
2021/08/07 02:28:20;;;;;;;20.73;7.00;;;;;;;14.46;100.00;100287.59;5077184;28;20039;-64
2021/08/07 02:30:46;;;;;;;20.15;7.32;;;;;;;14.45;100.00;100288.50;5075418;28;20033;-63
2021/08/07 02:33:12;;;;;;;21.13;7.50;;;;;;;14.43;100.00;100284.97;5075959;28;20043;-65
2021/08/07 02:35:38;;;;;;;20.65;7.47;;;;;;;14.46;100.00;100288.47;5079512;28;20020;-64
2021/08/07 02:38:04;;;;;;;21.17;7.50;;;;;;;14.48;100.00;100299.94;5078203;28;20095;-63
2021/08/07 02:40:31;;;;;;;21.42;7.28;;;;;;;14.48;100.00;100302.59;5077275;28;20429;-63
2021/08/07 02:42:58;;;;;;;20.60;7.20;;;;;;;14.51;100.00;100293.69;5079672;28;20431;-64
2021/08/07 02:45:25;;;;;;;24.42;7.30;;;;;;;14.51;100.00;100304.31;5077549;28;20063;-64
2021/08/07 02:47:51;;;;;;;21.35;7.20;;;;;;;14.52;100.00;100300.75;5075942;28;20448;-64
2021/08/07 02:50:17;;;;;;;22.30;7.47;;;;;;;14.54;100.00;100296.28;5078139;28;20107;-66
2021/08/07 02:52:45;;;;;;;22.65;7.90;;;;;;;14.53;100.00;100294.50;5077666;28;20111;-67
2021/08/07 02:55:10;;;;;;;21.25;7.18;;;;;;;14.51;100.00;100291.03;5075228;28;20028;-66
2021/08/07 02:57:36;;;;;;;20.92;7.57;;;;;;;14.50;100.00;100291.06;5075595;28;20123;-65
2021/08/07 03:00:02;;;;;;;20.80;7.28;;;;;;;14.50;100.00;100280.41;5076855;28;20020;-66
2021/08/07 03:02:28;;;;;;;24.65;7.68;;;;;;;14.50;100.00;100281.28;5078983;28;20422;-66
2021/08/07 03:04:53;;;;;;;22.58;7.82;;;;;;;14.52;100.00;100284.81;5078090;28;20025;-67
2021/08/07 03:07:18;;;;;;;23.23;8.00;;;;;;;14.55;100.00;100281.22;5075919;28;20383;-68
2021/08/07 03:09:44;;;;;;;21.45;7.75;;;;;;;14.59;100.00;100274.91;5074522;28;20028;-67
2021/08/07 03:12:09;;;;;;;24.52;7.82;;;;;;;14.60;100.00;100279.31;5078348;28;20027;-67
2021/08/07 03:14:34;;;;;;;21.38;7.80;;;;;;;14.57;100.00;100269.59;5075798;28;20029;-65
2021/08/07 03:17:00;;;;;;;23.60;7.82;;;;;;;14.53;100.00;100265.25;5081456;28;20044;-67
2021/08/07 03:19:25;;;;;;;22.13;8.45;;;;;;;14.39;100.00;100265.56;5076988;28;20025;-64
2021/08/07 03:21:51;;;;;;;24.85;8.35;;;;;;;14.33;100.00;100260.38;5076505;28;20039;-67
2021/08/07 03:24:16;;;;;;;25.33;8.48;;;;;;;14.24;100.00;100268.50;5078752;28;20024;-68
2021/08/07 03:26:41;;;;;;;25.85;8.27;;;;;;;14.18;100.00;100258.88;5075523;28;20032;-66
2021/08/07 03:29:07;;;;;;;24.00;7.93;;;;;;;14.11;100.00;100263.47;5076961;28;20063;-66
2021/08/07 03:31:32;;;;;;;22.80;8.35;;;;;;;14.11;100.00;100260.81;5078979;28;20475;-65
2021/08/07 03:33:58;;;;;;;21.50;7.30;;;;;;;14.08;100.00;100268.84;5077027;28;20024;-65
2021/08/07 03:36:23;;;;;;;24.27;8.18;;;;;;;14.05;100.00;100263.59;5079972;28;20017;-66
2021/08/07 03:38:48;;;;;;;23.27;7.95;;;;;;;14.01;100.00;100261.88;5075857;28;20107;-64
2021/08/07 03:41:14;;;;;;;23.77;8.05;;;;;;;13.98;100.00;100263.72;5077948;28;20039;-65
2021/08/07 03:43:39;;;;;;;23.38;8.40;;;;;;;13.97;100.00;100259.31;5077797;28;20016;-65
2021/08/07 03:46:04;;;;;;;23.80;8.43;;;;;;;13.93;100.00;100254.03;5078357;28;20552;-65
2021/08/07 03:48:30;;;;;;;26.88;9.07;;;;;;;13.91;100.00;100255.88;5078202;28;20085;-65
2021/08/07 03:50:55;;;;;;;24.45;8.50;;;;;;;13.84;100.00;100248.91;5078482;28;20520;-64
2021/08/07 03:53:20;;;;;;;23.27;8.68;;;;;;;13.78;100.00;100255.19;5076793;28;20451;-64
2021/08/07 03:55:46;;;;;;;23.55;8.48;;;;;;;13.78;100.00;100247.25;5077694;28;20067;-67
2021/08/07 03:58:11;;;;;;;22.58;8.20;;;;;;;13.72;100.00;100249.16;5077415;28;20063;-66
2021/08/07 04:00:36;;;;;;;26.42;8.38;;;;;;;13.67;100.00;100251.00;5078963;28;20032;-67
2021/08/07 04:03:02;;;;;;;26.33;9.15;;;;;;;13.60;100.00;100252.88;5077512;28;20029;-66
2021/08/07 04:05:28;;;;;;;25.02;8.70;;;;;;;13.58;100.00;100239.63;5077635;28;20051;-65
2021/08/07 04:08:01;;;;;;;23.55;8.50;;;;;;;13.55;100.00;100252.94;5079248;28;20024;-65
2021/08/07 04:10:26;;;;;;;22.65;8.43;;;;;;;13.53;100.00;100249.47;5076859;28;20024;-64
2021/08/07 04:12:52;;;;;;;24.17;9.02;;;;;;;13.56;100.00;100253.84;5077662;28;20031;-63
2021/08/07 04:15:17;;;;;;;23.20;8.98;;;;;;;13.56;100.00;100259.16;5076853;28;20025;-63
2021/08/07 04:17:42;;;;;;;22.80;8.80;;;;;;;13.59;100.00;100244.03;5076181;28;20357;-64
2021/08/07 04:20:09;;;;;;;23.17;8.85;;;;;;;13.64;100.00;100251.06;5076780;28;20024;-64
2021/08/07 04:22:35;;;;;;;24.67;9.30;;;;;;;13.70;100.00;100254.50;5077581;28;20459;-64
2021/08/07 04:25:02;;;;;;;24.23;9.55;;;;;;;13.80;100.00;100255.19;5076911;28;20027;-64
2021/08/07 04:27:27;;;;;;;24.83;8.93;;;;;;;13.88;100.00;100247.94;5078683;28;20029;-63
2021/08/07 04:29:52;;;;;;;22.92;9.10;;;;;;;13.94;100.00;100250.47;5078981;28;20036;-63
2021/08/07 04:32:19;;;;;;;22.25;8.70;;;;;;;14.02;100.00;100247.66;5077693;28;20032;-63
2021/08/07 04:34:44;;;;;;;23.65;8.80;;;;;;;14.08;100.00;100257.31;5079566;28;20020;-63
2021/08/07 04:37:10;;;;;;;23.58;8.60;;;;;;;14.09;100.00;100244.00;5073972;28;20043;-63
2021/08/07 04:39:36;;;;;;;21.55;8.60;;;;;;;14.12;100.00;100249.28;5076870;28;20115;-63
2021/08/07 04:42:02;;;;;;;23.60;9.15;;;;;;;14.13;100.00;100250.13;5074879;28;20028;-63
2021/08/07 04:44:27;;;;;;;21.70;8.70;;;;;;;14.16;100.00;100243.91;5073843;28;20036;-65
2021/08/07 04:46:52;;;;;;;23.60;8.93;;;;;;;14.19;100.00;100255.31;5074306;28;20379;-63
2021/08/07 04:49:18;;;;;;;23.95;8.68;;;;;;;14.23;100.00;100242.88;5075584;28;20033;-63
2021/08/07 04:51:43;;;;;;;23.58;9.25;;;;;;;14.24;100.00;100236.63;5074097;28;20023;-63
2021/08/07 04:54:10;;;;;;;22.23;8.80;;;;;;;14.28;100.00;100238.31;5076295;28;20099;-63
2021/08/07 04:56:36;;;;;;;22.38;8.90;;;;;;;14.33;100.00;100240.88;5077459;28;20081;-63
2021/08/07 04:59:02;;;;;;;23.02;8.77;;;;;;;14.37;100.00;100237.25;5078111;28;20025;-62
2021/08/07 05:01:27;;;;;;;23.88;9.05;;;;;;;14.46;100.00;100235.28;5076109;28;20162;-63
2021/08/07 05:03:53;;;;;;;23.90;9.23;;;;;;;14.56;100.00;100235.97;5074416;28;20105;-63
2021/08/07 05:06:18;;;;;;;23.17;9.27;;;;;;;14.64;100.00;100231.38;5076107;28;20020;-63
2021/08/07 05:08:43;;;;;;;22.17;8.85;;;;;;;14.72;100.00;100225.91;5077277;28;20032;-63
2021/08/07 05:11:08;;;;;;;20.80;8.57;;;;;;;14.73;100.00;100230.28;5075659;28;20038;-63
2021/08/07 05:13:34;;;;;;;20.73;8.40;;;;;;;14.72;100.00;100230.31;5079197;28;20028;-63
2021/08/07 05:16:00;;;;;;;23.48;8.88;;;;;;;14.68;100.00;100225.97;5077549;28;20402;-63
2021/08/07 05:18:26;;;;;;;21.30;8.13;;;;;;;14.60;100.00;100218.13;5081471;28;20020;-62
2021/08/07 05:20:51;;;;;;;20.85;8.57;;;;;;;14.54;100.00;100213.81;5082559;28;20028;-63
2021/08/07 05:23:17;;;;;;;21.55;8.55;;;;;;;14.50;100.00;100217.47;5080955;28;20419;-63
2021/08/07 05:25:42;;;;;;;21.83;8.68;;;;;;;14.49;100.00;100218.38;5082587;28;20025;-63
2021/08/07 05:28:07;;;;;;;22.60;8.63;;;;;;;14.41;100.00;100215.88;5081729;28;20051;-62
2021/08/07 05:30:33;;;;;;;22.17;9.07;;;;;;;14.37;100.00;100222.19;5082342;28;20478;-63
2021/08/07 05:32:58;;;;;;;22.52;9.38;;;;;;;14.40;100.00;100215.91;5079793;28;20078;-63
2021/08/07 05:35:24;;;;;;;22.52;9.07;;;;;;;14.42;100.00;100216.78;5078889;28;20158;-63
2021/08/07 05:37:49;;;;;;;22.98;8.77;;;;;;;14.41;100.00;100210.56;5078362;28;20032;-63
2021/08/07 05:40:14;;;;;;;22.23;8.90;;;;;;;14.48;100.00;100216.63;5080616;28;20086;-63
2021/08/07 05:42:41;;;;;;;22.20;8.73;;;;;;;14.53;100.00;100220.03;5083477;28;20066;-62
2021/08/07 05:45:07;;;;;;;22.02;8.65;;;;;;;14.57;100.00;100219.06;5079287;28;20035;-63
2021/08/07 05:47:33;;;;;;;22.02;8.85;;;;;;;14.62;100.00;100217.25;5078942;28;20077;-63
2021/08/07 05:49:59;;;;;;;22.25;8.80;;;;;;;14.72;100.00;100212.59;5079897;28;20028;-62
2021/08/07 05:52:25;;;;;;;22.15;8.50;;;;;;;14.82;100.00;100216.78;5081970;28;20479;-62
2021/08/07 05:54:51;;;;;;;21.45;8.43;;;;;;;14.88;100.00;100204.25;5080662;28;20021;-63
2021/08/07 05:57:17;;;;;;;20.98;8.50;;;;;;;14.94;100.00;100212.06;5081082;28;20031;-63
2021/08/07 05:59:42;;;;;;;21.73;8.18;;;;;;;15.08;100.00;100201.09;5080675;28;20121;-63
2021/08/07 06:02:08;;;;;;;21.67;7.95;;;;;;;15.16;100.00;100200.00;5080130;28;20028;-63
2021/08/07 06:04:33;;;;;;;21.73;7.63;;;;;;;15.26;100.00;100197.09;5080292;28;20047;-63
2021/08/07 06:06:58;;;;;;;21.85;7.57;;;;;;;15.37;100.00;100199.50;5076052;28;20024;-62
2021/08/07 06:09:25;;;;;;;21.35;7.25;;;;;;;15.49;100.00;100196.50;5077295;28;20399;-63
2021/08/07 06:11:52;;;;;;;19.85;6.70;;;;;;;15.63;100.00;100199.69;5079994;28;20584;-63
2021/08/07 06:14:17;;;;;;;21.50;7.20;;;;;;;15.83;100.00;100198.31;5075708;28;20063;-63
2021/08/07 06:16:42;;;;;;;20.75;6.68;;;;;;;15.99;100.00;100196.97;5075525;28;20411;-63
2021/08/07 06:19:08;;;;;;;21.55;6.90;;;;;;;16.19;100.00;100200.84;5078735;28;20068;-63
2021/08/07 06:21:33;;;;;;;19.42;5.82;;;;;;;16.36;98.71;100201.22;5076876;28;20053;-63
2021/08/07 06:23:59;;;;;;;19.02;6.00;;;;;;;16.45;96.79;100204.53;5078751;28;20024;-64
2021/08/07 06:26:25;;;;;;;19.08;6.35;;;;;;;16.59;93.33;100205.00;5077751;28;20051;-62
2021/08/07 06:28:51;;;;;;;20.77;6.10;;;;;;;16.84;90.38;100198.91;5078585;28;20376;-63
2021/08/07 06:31:16;;;;;;;20.13;6.00;;;;;;;17.03;88.85;100200.06;5081431;28;20036;-63
2021/08/07 06:33:41;;;;;;;18.63;5.50;;;;;;;16.90;86.23;100196.91;5078547;28;20032;-63
2021/08/07 06:36:07;;;;;;;20.25;5.57;;;;;;;16.72;85.31;100194.81;5077341;28;20131;-63
2021/08/07 06:38:33;;;;;;;19.85;5.95;;;;;;;16.59;86.75;100198.81;5078949;28;20459;-63
2021/08/07 06:40:58;;;;;;;19.27;5.68;;;;;;;16.51;88.40;100194.56;5077333;28;20036;-63
2021/08/07 06:43:24;;;;;;;17.73;5.28;;;;;;;16.54;87.36;100196.25;5079328;28;20028;-63
2021/08/07 06:45:49;;;;;;;19.15;5.88;;;;;;;16.62;88.25;100204.91;5079337;28;20055;-63
2021/08/07 06:48:14;;;;;;;19.20;6.00;;;;;;;16.70;87.27;100194.88;5081379;28;20028;-65
2021/08/07 06:50:40;;;;;;;19.73;6.13;;;;;;;16.79;87.32;100192.81;5076939;28;20070;-62
2021/08/07 06:53:05;;;;;;;19.52;5.88;;;;;;;16.81;86.12;100191.00;5079067;28;20063;-63
2021/08/07 06:55:31;;;;;;;19.20;5.82;;;;;;;16.76;85.20;100190.25;5079538;28;20058;-63
2021/08/07 06:57:56;;;;;;;19.60;5.85;;;;;;;16.81;90.02;100188.31;5076755;28;20074;-63
2021/08/07 07:00:22;;;;;;;18.30;5.30;;;;;;;16.91;87.11;100184.47;5080847;28;20051;-63
2021/08/07 07:02:47;;;;;;;18.38;5.25;;;;;;;16.89;87.96;100183.63;5080515;28;20051;-63
2021/08/07 07:05:13;;;;;;;20.45;5.93;;;;;;;16.86;91.76;100183.69;5077844;28;20102;-64
2021/08/07 07:07:39;;;;;;;18.13;4.82;;;;;;;16.71;87.18;100177.91;5077977;28;20021;-63
2021/08/07 07:10:09;;;;;;;19.52;5.28;;;;;;;16.63;91.88;100173.75;5078407;28;20025;-63
2021/08/07 07:12:35;;;;;;;17.33;5.28;;;;;;;16.65;91.76;100174.59;5077461;28;20029;-63
2021/08/07 07:15:00;;;;;;;19.10;4.63;;;;;;;16.66;89.01;100165.63;5079021;28;20402;-63
2021/08/07 07:17:28;;;;;;;16.70;4.63;;;;;;;16.65;86.89;100178.13;5079413;28;20051;-63
2021/08/07 07:19:54;;;;;;;18.30;4.75;;;;;;;16.70;90.35;100181.53;5080755;28;20020;-63
2021/08/07 07:22:19;;;;;;;16.55;4.65;;;;;;;16.74;88.79;100171.63;5080357;28;20027;-63
2021/08/07 07:24:45;;;;;;;17.00;4.30;;;;;;;16.82;90.20;100174.03;5079289;28;20031;-63
2021/08/07 07:27:10;;;;;;;18.52;4.20;;;;;;;16.84;83.70;100182.88;5076836;28;20035;-63
2021/08/07 07:29:35;;;;;;;16.33;3.65;;;;;;;16.89;84.31;100189.84;5080718;28;20108;-63
2021/08/07 07:32:01;;;;;;;16.70;3.63;;;;;;;16.95;80.37;100185.22;5077396;28;20033;-63
2021/08/07 07:34:26;;;;;;;15.98;3.67;;;;;;;16.97;78.46;100180.72;5081112;28;20031;-63
2021/08/07 07:36:53;;;;;;;15.95;4.10;;;;;;;17.03;81.47;100185.84;5075523;28;20474;-64
2021/08/07 07:39:18;;;;;;;17.20;4.07;;;;;;;17.08;80.82;100179.44;5077190;28;20057;-63
2021/08/07 07:41:43;;;;;;;16.25;4.10;;;;;;;17.28;83.05;100177.03;5073579;28;20048;-62
2021/08/07 07:44:09;;;;;;;16.90;3.95;;;;;;;17.43;81.97;100173.84;5077636;28;20035;-63
2021/08/07 07:46:34;;;;;;;14.35;3.90;;;;;;;17.50;80.05;100174.47;5073708;28;20707;-63
2021/08/07 07:49:01;;;;;;;16.40;3.90;;;;;;;17.49;79.16;100175.41;5076085;28;20025;-62
2021/08/07 07:51:26;;;;;;;16.67;4.20;;;;;;;17.41;78.14;100159.66;5074778;28;20527;-63
2021/08/07 07:53:51;;;;;;;14.32;3.90;;;;;;;17.43;80.62;100163.16;5074245;28;20138;-62
2021/08/07 07:56:17;;;;;;;17.20;4.10;;;;;;;17.53;80.03;100166.34;5076136;28;20024;-63
2021/08/07 07:58:42;;;;;;;17.55;4.10;;;;;;;17.57;77.35;100160.00;5076991;28;20028;-63
2021/08/07 08:01:08;;;;;;;19.40;4.20;;;;;;;17.59;77.21;100168.81;5077910;28;20032;-63
2021/08/07 08:03:34;;;;;;;15.00;3.90;;;;;;;17.61;75.83;100164.31;5076058;28;20033;-63
2021/08/07 08:05:59;;;;;;;14.65;3.67;;;;;;;17.73;74.11;100161.16;5076726;28;20021;-63
2021/08/07 08:08:25;;;;;;;14.18;3.30;;;;;;;17.92;73.54;100165.88;5076602;28;20111;-63
2021/08/07 08:10:50;;;;;;;15.35;3.78;;;;;;;18.18;73.93;100153.34;5078261;28;20108;-64
2021/08/07 08:13:19;;;;;;;17.38;4.13;;;;;;;18.52;71.81;100152.03;5076615;28;20033;-63
2021/08/07 08:15:45;;;;;;;16.65;3.90;;;;;;;18.89;71.67;100156.81;5073989;28;20107;-63
2021/08/07 08:18:11;;;;;;;15.00;3.50;;;;;;;19.04;70.46;100162.47;5078930;28;20115;-65
2021/08/07 08:20:37;;;;;;;14.07;3.70;;;;;;;18.90;70.30;100157.69;5077572;28;20502;-65
2021/08/07 08:23:03;;;;;;;15.15;4.00;;;;;;;18.68;71.35;100157.66;5075468;28;20036;-63
2021/08/07 08:25:29;;;;;;;14.57;4.55;;;;;;;18.62;72.47;100153.41;5077900;28;20516;-64
2021/08/07 08:27:54;;;;;;;17.13;4.75;;;;;;;18.73;73.21;100145.81;5076655;28;20032;-63
2021/08/07 08:30:19;;;;;;;15.35;4.72;;;;;;;19.28;71.12;100142.69;5075067;28;20410;-64
2021/08/07 08:32:45;;;;;;;17.52;4.28;;;;;;;20.06;68.65;100137.47;5079897;28;20085;-63
2021/08/07 08:35:10;;;;;;;17.88;4.35;;;;;;;20.96;64.81;100149.38;5078490;28;20028;-63
2021/08/07 08:37:36;;;;;;;15.80;4.20;;;;;;;21.74;62.19;100139.97;5078102;28;20020;-63
2021/08/07 08:40:02;;;;;;;16.08;4.00;;;;;;;22.18;59.82;100138.53;5078764;28;20499;-64
2021/08/07 08:42:28;;;;;;;16.50;4.00;;;;;;;22.15;57.57;100137.81;5077147;28;20036;-64
2021/08/07 08:44:54;;;;;;;16.13;3.92;;;;;;;21.83;58.30;100127.84;5076506;28;20032;-63
2021/08/07 08:47:20;;;;;;;15.55;3.67;;;;;;;21.72;60.73;100133.78;5080519;28;20378;-63
2021/08/07 08:49:46;;;;;;;14.88;3.72;;;;;;;21.83;61.07;100130.56;5076666;28;20027;-64
2021/08/07 08:52:14;;;;;;;15.27;3.50;;;;;;;21.73;59.61;100132.84;5077019;28;20486;-63
2021/08/07 08:54:41;;;;;;;16.67;3.70;;;;;;;21.41;59.51;100142.59;5076307;28;20114;-63
2021/08/07 08:57:06;;;;;;;14.95;3.95;;;;;;;20.73;60.81;100138.78;5079479;28;20039;-63
2021/08/07 08:59:32;;;;;;;13.77;3.70;;;;;;;20.26;63.05;100141.06;5076933;28;20344;-63
2021/08/07 09:01:57;;;;;;;16.70;4.10;;;;;;;20.20;64.47;100132.34;5077663;28;20079;-63
2021/08/07 09:04:23;;;;;;;16.23;4.25;;;;;;;20.52;61.96;100127.25;5071834;28;20039;-63
2021/08/07 09:06:49;;;;;;;20.30;4.68;;;;;;;20.43;62.30;100132.19;5074077;28;20032;-64
2021/08/07 09:09:14;;;;;;;20.48;4.55;;;;;;;20.48;65.04;100120.28;5072580;28;20028;-63
2021/08/07 09:11:51;;;;;;;16.30;4.18;;;;;;;20.78;62.73;100122.47;5075104;28;20035;-63
2021/08/07 09:14:29;;;;;;;17.27;4.10;;;;;;;21.23;62.64;100117.50;5077426;28;20028;-63
2021/08/07 09:17:04;;;;;;;17.52;4.22;;;;;;;21.67;59.31;100109.00;5075958;28;20499;-64
2021/08/07 09:19:38;;;;;;;17.83;3.90;;;;;;;21.86;59.52;100105.31;5075453;28;20028;-64
2021/08/07 09:22:06;;;;;;;17.23;3.80;;;;;;;21.95;57.05;100118.25;5074749;28;20036;-64
2021/08/07 09:24:32;;;;;;;17.17;3.67;;;;;;;22.02;58.31;100111.59;5074438;28;20032;-63
2021/08/07 09:27:04;;;;;;;17.92;4.00;;;;;;;22.12;58.10;100111.97;5077678;28;20024;-63
2021/08/07 09:29:40;;;;;;;17.88;4.43;;;;;;;21.98;55.95;100114.53;5070695;28;20048;-63
2021/08/07 09:32:06;;;;;;;19.70;4.93;;;;;;;22.09;53.92;100114.78;5076525;28;20025;-63
2021/08/07 09:34:31;;;;;;;19.20;4.97;;;;;;;21.94;55.82;100111.13;5074694;28;20545;-63
2021/08/07 09:36:57;;;;;;;18.70;4.13;;;;;;;21.46;56.62;100105.56;5077609;28;20025;-63
2021/08/07 09:39:37;;;;;;;17.08;4.18;;;;;;;22.10;56.09;100103.94;5074905;28;20028;-63
2021/08/07 09:42:03;;;;;;;16.50;4.10;;;;;;;22.68;51.93;100109.72;5076522;28;20115;-63
2021/08/07 09:44:30;;;;;;;16.48;4.20;;;;;;;22.06;52.61;100109.56;5077024;28;20025;-63
2021/08/07 09:47:05;;;;;;;15.90;4.45;;;;;;;22.51;53.67;100101.75;5074821;28;20101;-63
2021/08/07 09:49:36;;;;;;;15.07;4.05;;;;;;;23.42;51.16;100104.53;5074614;28;20034;-63
2021/08/07 09:52:03;;;;;;;16.80;4.53;;;;;;;23.55;49.75;100104.59;5076855;28;20032;-63
2021/08/07 09:54:40;;;;;;;17.55;4.25;;;;;;;23.72;49.86;100107.16;5077342;28;20078;-63
2021/08/07 09:57:10;;;;;;;18.15;4.43;;;;;;;23.52;48.76;100104.81;5073170;28;20036;-63
2021/08/07 09:59:47;;;;;;;17.08;3.95;;;;;;;24.06;49.10;100109.56;5076826;28;20604;-63
2021/08/07 10:02:39;;;;;;;15.88;3.63;;;;;;;24.81;46.14;100122.75;5075696;28;20043;-63
2021/08/07 10:05:07;;;;;;;14.90;3.47;;;;;;;24.13;46.43;100105.50;5077270;28;20123;-64
2021/08/07 10:07:32;;;;;;;13.38;3.00;;;;;;;24.09;45.88;100099.47;5081965;28;20024;-63
2021/08/07 10:09:58;;;;;;;17.08;3.40;;;;;;;24.73;45.15;100103.47;5080142;28;20032;-63
2021/08/07 10:12:23;;;;;;;15.93;3.50;;;;;;;25.70;45.06;100113.13;5080179;28;20074;-64
2021/08/07 10:14:50;;;;;;;17.42;3.90;;;;;;;26.53;41.90;100100.88;5082305;28;20025;-63
2021/08/07 10:17:18;;;;;;;16.48;3.00;;;;;;;26.87;40.26;100096.53;5079719;28;20044;-63
2021/08/07 10:19:46;;;;;;;14.95;3.30;;;;;;;25.86;40.80;100096.66;5081293;28;20020;-63
2021/08/07 10:22:13;;;;;;;14.57;3.10;;;;;;;26.03;42.11;100085.50;5078343;28;20028;-64
2021/08/07 10:24:43;;;;;;;13.88;3.00;;;;;;;26.40;39.72;100090.06;5077776;28;20027;-63
2021/08/07 10:27:09;;;;;;;14.07;3.30;;;;;;;26.17;41.01;100092.63;5078061;28;20032;-63
2021/08/07 10:29:39;;;;;;;12.18;2.80;;;;;;;24.40;43.42;100093.91;5079346;28;20116;-63
2021/08/07 10:32:06;;;;;;;12.50;3.00;;;;;;;22.80;45.82;100091.97;5080392;28;20094;-63
2021/08/07 10:34:36;;;;;;;16.02;3.30;;;;;;;22.03;49.17;100096.28;5078153;28;20044;-63
2021/08/07 10:37:01;;;;;;;15.77;3.50;;;;;;;21.57;50.98;100086.22;5073753;28;20021;-63
2021/08/07 10:39:29;;;;;;;15.65;3.38;;;;;;;21.85;51.24;100090.97;5075756;28;20031;-63
2021/08/07 10:41:59;;;;;;;17.80;3.42;;;;;;;22.89;48.97;100085.16;5076593;28;20028;-63
2021/08/07 10:44:25;;;;;;;15.15;3.50;;;;;;;22.86;49.36;100079.97;5072765;28;20032;-63
2021/08/07 10:46:55;;;;;;;14.20;3.13;;;;;;;23.81;46.24;100073.34;5079197;28;20052;-63
2021/08/07 10:49:49;;;;;;;14.90;3.15;;;;;;;25.30;44.19;100070.75;5078723;28;20031;-64
2021/08/07 10:52:20;;;;;;;15.20;3.15;;;;;;;26.02;42.72;100067.56;5015863;28;20053;-64
2021/08/07 10:54:47;;;;;;;15.18;2.83;;;;;;;25.50;42.22;100076.63;5014068;28;20068;-64
2021/08/07 10:57:38;;;;;;;16.85;3.05;;;;;;;25.47;41.82;100060.63;5018322;28;20048;-64
2021/08/07 11:00:15;;;;;;;11.40;2.90;;;;;;;25.81;41.72;100074.47;5016649;28;20072;-63
2021/08/07 11:02:41;;;;;;;13.18;3.10;;;;;;;26.03;40.86;100057.56;5016220;28;20049;-63
2021/08/07 11:05:07;;;;;;;12.98;3.20;;;;;;;26.52;41.21;100053.06;5018167;28;20030;-63
2021/08/07 11:07:32;;;;;;;13.52;3.05;;;;;;;27.35;37.86;100054.94;5016189;28;20520;-64
2021/08/07 11:10:10;;;;;;;13.90;3.05;;;;;;;28.13;37.96;100047.78;5016707;28;20045;-64